createdAt,value
2023-05-22T00:00:19.469Z,15.80
2023-05-22T00:02:46.401Z,15.80
2023-05-22T00:05:15.098Z,15.80
2023-05-22T00:07:43.371Z,15.80
2023-05-22T00:10:11.194Z,15.80
2023-05-22T00:12:38.176Z,15.80
2023-05-22T00:15:06.149Z,15.70
2023-05-22T00:17:34.263Z,15.70
2023-05-22T00:20:07.957Z,15.70
2023-05-22T00:22:35.521Z,15.70
2023-05-22T00:25:07.210Z,15.70
2023-05-22T00:27:34.831Z,15.70
2023-05-22T00:30:02.156Z,15.70
2023-05-22T00:32:30.310Z,15.70
2023-05-22T00:34:57.197Z,15.60
2023-05-22T00:37:25.440Z,15.60
2023-05-22T00:39:52.372Z,15.60
2023-05-22T00:42:19.341Z,15.60
2023-05-22T00:44:46.248Z,15.60
2023-05-22T00:47:13.074Z,15.60
2023-05-22T00:49:41.849Z,15.50
2023-05-22T00:52:10.221Z,15.50
2023-05-22T00:54:37.763Z,15.50
2023-05-22T00:57:05.829Z,15.50
2023-05-22T00:59:32.941Z,15.50
2023-05-22T01:01:59.899Z,15.50
2023-05-22T01:04:27.147Z,15.50
2023-05-22T01:06:55.226Z,15.40
2023-05-22T01:09:22.094Z,15.50
2023-05-22T01:12:36.464Z,15.40
2023-05-22T01:15:41.253Z,15.40
2023-05-22T01:18:41.804Z,15.40
2023-05-22T01:21:15.298Z,15.50
2023-05-22T01:24:25.667Z,15.40
2023-05-22T01:27:25.771Z,15.40
2023-05-22T01:30:42.031Z,15.40
2023-05-22T01:33:13.847Z,15.30
2023-05-22T01:35:43.644Z,15.40
2023-05-22T01:38:11.845Z,15.30
2023-05-22T01:40:39.661Z,15.30
2023-05-22T01:43:08.399Z,15.30
2023-05-22T01:45:35.268Z,15.30
2023-05-22T01:48:02.609Z,15.30
2023-05-22T01:50:29.781Z,16.40
2023-05-22T01:53:11.431Z,15.30
2023-05-22T01:56:12.702Z,15.30
2023-05-22T01:59:15.163Z,15.30
2023-05-22T02:01:43.100Z,15.30
2023-05-22T02:04:11.356Z,15.30
2023-05-22T02:06:39.570Z,15.30
2023-05-22T02:09:08.471Z,15.30
2023-05-22T02:11:37.533Z,15.30
2023-05-22T02:14:04.404Z,15.30
2023-05-22T02:16:31.532Z,15.40
2023-05-22T02:19:08.322Z,15.40
2023-05-22T02:21:36.193Z,15.50
2023-05-22T02:24:03.670Z,15.50
2023-05-22T02:26:30.623Z,15.50
2023-05-22T02:28:57.664Z,15.50
2023-05-22T02:31:24.670Z,15.40
2023-05-22T02:33:51.586Z,15.30
2023-05-22T02:36:18.964Z,15.30
2023-05-22T02:38:45.897Z,15.20
2023-05-22T02:41:12.729Z,15.20
2023-05-22T02:43:39.578Z,15.20
2023-05-22T02:46:06.511Z,15.10
2023-05-22T02:48:33.422Z,15.10
2023-05-22T02:51:00.307Z,15.10
2023-05-22T02:53:27.810Z,15.10
2023-05-22T02:55:58.779Z,15.10
2023-05-22T02:58:25.763Z,15.10
2023-05-22T03:00:55.696Z,15.10
2023-05-22T03:03:25.097Z,15.10
2023-05-22T03:05:58.223Z,15.10
2023-05-22T03:08:28.318Z,15.50
2023-05-22T03:10:57.077Z,15.10
2023-05-22T03:13:24.202Z,15.20
2023-05-22T03:15:51.895Z,15.10
2023-05-22T03:18:18.872Z,15.10
2023-05-22T03:20:45.750Z,15.00
2023-05-22T03:23:13.414Z,15.10
2023-05-22T03:25:40.247Z,15.50
2023-05-22T03:28:07.164Z,15.10
2023-05-22T03:30:34.112Z,15.20
2023-05-22T03:33:01.127Z,15.10
2023-05-22T03:35:28.032Z,15.10
2023-05-22T03:37:54.941Z,15.10
2023-05-22T03:40:22.142Z,15.10
2023-05-22T03:42:49.526Z,15.20
2023-05-22T03:45:16.657Z,15.20
2023-05-22T03:47:43.541Z,15.30
2023-05-22T03:50:11.006Z,15.70
2023-05-22T03:52:38.214Z,15.30
2023-05-22T03:55:06.734Z,15.40
2023-05-22T03:57:33.600Z,15.50
2023-05-22T04:00:07.490Z,15.50
2023-05-22T04:02:34.378Z,15.60
2023-05-22T04:05:01.410Z,15.70
2023-05-22T04:07:28.290Z,15.80
2023-05-22T04:09:55.144Z,15.80
2023-05-22T04:12:22.085Z,15.80
2023-05-22T04:14:48.889Z,15.80
2023-05-22T04:17:16.027Z,15.80
2023-05-22T04:19:42.882Z,15.90
2023-05-22T04:22:09.752Z,16.00
2023-05-22T04:24:39.628Z,16.00
2023-05-22T04:27:06.986Z,16.10
2023-05-22T04:29:36.292Z,16.20
2023-05-22T04:32:03.945Z,16.20
2023-05-22T04:34:30.811Z,16.30
2023-05-22T04:36:58.063Z,16.40
2023-05-22T04:39:26.298Z,16.40
2023-05-22T04:41:53.279Z,16.50
2023-05-22T04:44:22.942Z,16.60
2023-05-22T04:46:51.295Z,16.60
2023-05-22T04:49:18.150Z,16.60
2023-05-22T04:51:45.224Z,16.60
2023-05-22T04:54:12.065Z,16.60
2023-05-22T04:56:38.938Z,16.60
2023-05-22T04:59:08.981Z,16.60
2023-05-22T05:01:37.852Z,16.60
2023-05-22T05:04:05.192Z,16.60
2023-05-22T05:06:32.037Z,16.70
2023-05-22T05:08:58.881Z,16.80
2023-05-22T05:11:26.027Z,16.90
2023-05-22T05:13:52.873Z,16.90
2023-05-22T05:16:19.794Z,17.10
2023-05-22T05:18:46.751Z,17.20
2023-05-22T05:21:13.619Z,17.30
2023-05-22T05:23:41.081Z,17.50
2023-05-22T05:26:07.935Z,17.50
2023-05-22T05:28:34.881Z,17.60
2023-05-22T05:31:01.795Z,17.90
2023-05-22T05:33:28.812Z,17.70
2023-05-22T05:35:55.805Z,17.80
2023-05-22T05:38:23.058Z,17.90
2023-05-22T05:40:49.934Z,17.90
2023-05-22T05:43:16.767Z,17.90
2023-05-22T05:45:43.962Z,18.00
2023-05-22T05:48:12.083Z,18.00
2023-05-22T05:50:39.436Z,18.00
2023-05-22T05:53:08.224Z,18.10
2023-05-22T05:55:35.158Z,18.10
2023-05-22T05:58:01.972Z,18.20
2023-05-22T06:00:28.872Z,18.20
2023-05-22T06:02:56.139Z,18.30
2023-05-22T06:05:23.581Z,18.30
2023-05-22T06:07:50.550Z,18.40
2023-05-22T06:10:17.843Z,18.50
2023-05-22T06:12:44.716Z,19.40
2023-05-22T06:15:13.638Z,18.60
2023-05-22T06:17:40.880Z,18.70
2023-05-22T06:20:09.206Z,18.80
2023-05-22T06:22:36.584Z,18.90
2023-05-22T06:25:03.700Z,18.90
2023-05-22T06:27:30.828Z,19.00
2023-05-22T06:29:57.877Z,19.10
2023-05-22T06:32:24.873Z,19.20
2023-05-22T06:34:51.790Z,19.20
2023-05-22T06:37:18.640Z,19.30
2023-05-22T06:39:45.530Z,19.30
2023-05-22T06:42:12.419Z,19.40
2023-05-22T06:44:39.260Z,19.50
2023-05-22T06:47:06.219Z,19.50
2023-05-22T06:49:33.098Z,19.60
2023-05-22T06:52:00.222Z,19.60
2023-05-22T06:54:28.737Z,19.70
2023-05-22T06:56:57.136Z,19.60
2023-05-22T06:59:23.979Z,19.70
2023-05-22T07:01:51.277Z,19.80
2023-05-22T07:04:18.190Z,19.90
2023-05-22T07:06:46.226Z,20.00
2023-05-22T07:09:13.971Z,20.10
2023-05-22T07:11:42.836Z,20.00
2023-05-22T07:14:12.411Z,20.10
2023-05-22T07:16:40.869Z,20.10
2023-05-22T07:19:09.168Z,20.10
2023-05-22T07:21:36.137Z,20.20
2023-05-22T07:24:08.112Z,20.20
2023-05-22T07:26:38.822Z,20.30
2023-05-22T07:29:05.791Z,20.40
2023-05-22T07:31:34.409Z,20.60
2023-05-22T07:34:01.443Z,20.40
2023-05-22T07:36:28.275Z,20.80
2023-05-22T07:38:55.171Z,20.50
2023-05-22T07:41:22.691Z,20.60
2023-05-22T07:43:50.099Z,20.60
2023-05-22T07:46:17.006Z,21.00
2023-05-22T07:48:43.933Z,20.80
2023-05-22T07:51:10.814Z,20.90
2023-05-22T07:53:37.751Z,20.90
2023-05-22T07:56:04.778Z,21.10
2023-05-22T07:58:32.100Z,21.10
2023-05-22T08:00:59.064Z,21.30
2023-05-22T08:03:26.227Z,21.30
2023-05-22T08:05:53.215Z,21.40
2023-05-22T08:08:20.278Z,21.80
2023-05-22T08:11:03.124Z,21.40
2023-05-22T08:13:31.323Z,21.40
2023-05-22T08:16:00.312Z,21.50
2023-05-22T08:18:29.411Z,21.60
2023-05-22T08:20:56.906Z,21.60
2023-05-22T08:23:23.749Z,21.50
2023-05-22T08:25:50.577Z,21.50
2023-05-22T08:28:18.219Z,21.60
2023-05-22T08:30:45.192Z,21.70
2023-05-22T08:33:12.242Z,21.90
2023-05-22T08:35:39.449Z,21.70
2023-05-22T08:38:06.378Z,21.60
2023-05-22T08:40:39.375Z,21.50
2023-05-22T08:43:07.064Z,21.30
2023-05-22T08:45:34.637Z,21.30
2023-05-22T08:48:06.346Z,21.00
2023-05-22T08:50:40.943Z,20.90
2023-05-22T08:53:11.334Z,20.80
2023-05-22T08:55:38.516Z,20.70
2023-05-22T08:58:06.145Z,20.70
2023-05-22T09:00:33.337Z,20.60
2023-05-22T09:03:00.469Z,20.60
2023-05-22T09:05:27.578Z,20.90
2023-05-22T09:08:02.716Z,20.60
2023-05-22T09:10:32.443Z,20.60
2023-05-22T09:13:11.261Z,20.60
2023-05-22T09:15:38.384Z,20.60
2023-05-22T09:18:06.379Z,20.70
2023-05-22T09:20:39.248Z,20.70
2023-05-22T09:23:20.254Z,20.80
2023-05-22T09:25:47.742Z,21.10
2023-05-22T09:28:14.602Z,21.40
2023-05-22T09:30:42.627Z,21.70
2023-05-22T09:33:14.226Z,22.10
2023-05-22T09:35:42.112Z,22.60
2023-05-22T09:38:12.536Z,22.90
2023-05-22T09:40:40.970Z,23.30
2023-05-22T09:43:10.171Z,23.80
2023-05-22T09:45:39.264Z,23.20
2023-05-22T09:48:08.828Z,23.20
2023-05-22T09:50:36.985Z,23.20
2023-05-22T09:53:05.279Z,23.10
2023-05-22T09:55:33.668Z,23.00
2023-05-22T09:58:04.878Z,22.80
2023-05-22T10:00:34.577Z,22.80
2023-05-22T10:03:16.519Z,22.90
2023-05-22T10:05:52.144Z,23.00
2023-05-22T10:08:36.517Z,23.20
2023-05-22T10:11:03.916Z,23.40
2023-05-22T10:13:31.354Z,23.20
2023-05-22T10:16:00.249Z,23.40
2023-05-22T10:18:27.628Z,23.50
2023-05-22T10:20:55.187Z,23.80
2023-05-22T10:23:22.601Z,24.00
2023-05-22T10:25:50.157Z,24.10
2023-05-22T10:28:29.451Z,24.20
2023-05-22T10:31:12.546Z,24.20
2023-05-22T10:33:47.949Z,24.10
2023-05-22T10:36:31.520Z,24.00
2023-05-22T10:39:33.533Z,24.00
2023-05-22T10:42:00.524Z,24.00
2023-05-22T10:44:27.465Z,24.10
2023-05-22T10:46:54.414Z,24.00
2023-05-22T10:49:26.184Z,24.00
2023-05-22T10:51:57.126Z,24.00
2023-05-22T10:54:44.389Z,24.00
2023-05-22T10:57:17.212Z,24.00
2023-05-22T10:59:47.914Z,24.00
2023-05-22T11:02:29.354Z,23.90
2023-05-22T11:05:30.811Z,23.90
2023-05-22T11:08:12.075Z,23.90
2023-05-22T11:11:00.618Z,24.00
2023-05-22T11:13:29.338Z,24.20
2023-05-22T11:15:57.704Z,24.10
2023-05-22T11:18:28.345Z,24.20
2023-05-22T11:20:55.838Z,24.20
2023-05-22T11:23:25.653Z,23.90
2023-05-22T11:25:52.749Z,23.70
2023-05-22T11:28:19.727Z,23.50
2023-05-22T11:30:47.608Z,23.40
2023-05-22T11:33:15.239Z,23.30
2023-05-22T11:35:44.590Z,23.40
2023-05-22T11:38:12.510Z,24.10
2023-05-22T11:40:39.521Z,23.90
2023-05-22T11:43:07.195Z,23.70
2023-05-22T11:45:37.771Z,24.00
2023-05-22T11:48:04.738Z,24.10
2023-05-22T11:50:41.819Z,24.40
2023-05-22T11:53:10.184Z,24.50
2023-05-22T11:55:37.016Z,23.90
2023-05-22T11:58:03.841Z,23.60
2023-05-22T12:00:31.981Z,23.40
2023-05-22T12:02:59.491Z,23.40
2023-05-22T12:05:26.653Z,23.30
2023-05-22T12:07:53.811Z,23.20
2023-05-22T12:10:20.876Z,23.30
2023-05-22T12:12:48.174Z,23.30
2023-05-22T12:15:20.368Z,23.40
2023-05-22T12:17:47.278Z,23.30
2023-05-22T12:20:14.598Z,23.70
2023-05-22T12:22:43.520Z,23.30
2023-05-22T12:25:20.612Z,23.30
2023-05-22T12:27:47.633Z,23.30
2023-05-22T12:30:15.429Z,23.20
2023-05-22T12:32:48.932Z,23.30
2023-05-22T12:35:17.505Z,23.20
2023-05-22T12:37:52.006Z,23.30
2023-05-22T12:40:19.201Z,23.30
2023-05-22T12:42:46.180Z,23.30
2023-05-22T12:45:13.831Z,23.30
2023-05-22T12:47:40.829Z,23.50
2023-05-22T12:50:08.647Z,23.10
2023-05-22T12:52:36.231Z,23.10
2023-05-22T12:55:03.238Z,23.10
2023-05-22T12:57:30.076Z,23.10
2023-05-22T12:59:57.193Z,23.20
2023-05-22T13:02:24.128Z,23.20
2023-05-22T13:04:51.021Z,23.30
2023-05-22T13:07:18.001Z,23.40
2023-05-22T13:09:44.821Z,23.40
2023-05-22T13:12:11.763Z,23.40
2023-05-22T13:14:40.298Z,23.40
2023-05-22T13:17:07.521Z,23.30
2023-05-22T13:19:34.686Z,23.30
2023-05-22T13:22:01.745Z,23.30
2023-05-22T13:24:28.561Z,23.40
2023-05-22T13:26:55.383Z,23.50
2023-05-22T13:29:22.189Z,23.50
2023-05-22T13:31:49.035Z,23.70
2023-05-22T13:34:16.088Z,23.90
2023-05-22T13:36:43.094Z,24.00
2023-05-22T13:39:09.941Z,24.10
2023-05-22T13:41:36.837Z,24.10
2023-05-22T13:44:03.698Z,24.20
2023-05-22T13:46:30.676Z,24.30
2023-05-22T13:48:57.526Z,24.30
2023-05-22T13:51:24.345Z,24.30
2023-05-22T13:53:51.170Z,24.50
2023-05-22T13:56:18.106Z,24.80
2023-05-22T13:58:45.001Z,25.00
2023-05-22T14:01:11.887Z,25.10
2023-05-22T14:03:39.165Z,25.20
2023-05-22T14:06:06.360Z,25.30
2023-05-22T14:08:33.233Z,25.30
2023-05-22T14:11:00.131Z,25.30
2023-05-22T14:13:26.999Z,25.60
2023-05-22T14:15:53.932Z,25.30
2023-05-22T14:18:21.066Z,25.20
2023-05-22T14:20:48.028Z,25.40
2023-05-22T14:23:15.684Z,25.20
2023-05-22T14:25:43.271Z,25.30
2023-05-22T14:28:14.054Z,25.40
2023-05-22T14:30:40.999Z,25.40
2023-05-22T14:33:08.743Z,25.30
2023-05-22T14:35:36.098Z,25.30
2023-05-22T14:38:03.092Z,25.40
2023-05-22T14:40:30.057Z,25.40
2023-05-22T14:42:56.894Z,25.50
2023-05-22T14:45:24.274Z,25.80
2023-05-22T14:47:51.215Z,25.50
2023-05-22T14:50:20.383Z,25.30
2023-05-22T14:52:51.248Z,25.30
2023-05-22T14:55:18.372Z,25.30
2023-05-22T14:57:45.478Z,25.20
2023-05-22T15:00:13.210Z,25.20
2023-05-22T15:02:40.860Z,25.10
2023-05-22T15:05:08.959Z,25.20
2023-05-22T15:07:43.922Z,25.10
2023-05-22T15:10:13.199Z,25.20
2023-05-22T15:12:40.221Z,25.50
2023-05-22T15:15:08.104Z,25.40
2023-05-22T15:17:34.974Z,25.30
2023-05-22T15:20:01.912Z,25.20
2023-05-22T15:22:28.765Z,25.30
2023-05-22T15:25:11.531Z,25.10
2023-05-22T15:27:39.652Z,25.00
2023-05-22T15:30:09.595Z,25.00
2023-05-22T15:32:37.977Z,25.00
2023-05-22T15:35:06.699Z,25.10
2023-05-22T15:37:34.071Z,25.10
2023-05-22T15:40:01.920Z,25.10
2023-05-22T15:42:29.377Z,25.20
2023-05-22T15:44:57.853Z,25.30
2023-05-22T15:47:24.945Z,25.40
2023-05-22T15:49:52.718Z,25.40
2023-05-22T15:52:21.021Z,25.40
2023-05-22T15:54:47.873Z,25.40
2023-05-22T15:57:14.744Z,25.40
2023-05-22T15:59:41.685Z,25.50
2023-05-22T16:02:08.604Z,25.30
2023-05-22T16:04:35.494Z,25.10
2023-05-22T16:07:02.386Z,24.90
2023-05-22T16:09:31.404Z,24.70
2023-05-22T16:11:59.436Z,24.40
2023-05-22T16:14:26.251Z,24.40
2023-05-22T16:16:53.096Z,24.20
2023-05-22T16:19:19.964Z,24.00
2023-05-22T16:21:46.887Z,24.00
2023-05-22T16:24:13.891Z,23.80
2023-05-22T16:26:40.926Z,23.50
2023-05-22T16:29:08.899Z,23.30
2023-05-22T16:31:35.973Z,23.20
2023-05-22T16:34:04.029Z,23.10
2023-05-22T16:36:31.400Z,22.80
2023-05-22T16:38:58.600Z,22.70
2023-05-22T16:41:26.818Z,22.40
2023-05-22T16:43:53.978Z,22.10
2023-05-22T16:46:21.162Z,21.90
2023-05-22T16:48:48.451Z,21.60
2023-05-22T16:51:15.337Z,21.40
2023-05-22T16:53:42.163Z,21.10
2023-05-22T16:56:09.094Z,20.80
2023-05-22T16:58:36.051Z,20.50
2023-05-22T17:01:03.099Z,20.20
2023-05-22T17:03:30.099Z,19.90
2023-05-22T17:05:57.189Z,19.70
2023-05-22T17:08:24.273Z,19.50
2023-05-22T17:10:51.355Z,19.30
2023-05-22T17:13:20.938Z,19.30
2023-05-22T17:15:48.966Z,19.00
2023-05-22T17:18:19.686Z,18.80
2023-05-22T17:20:51.720Z,18.60
2023-05-22T17:23:18.519Z,18.30
2023-05-22T17:25:46.755Z,18.10
2023-05-22T17:28:14.956Z,17.90
2023-05-22T17:30:44.129Z,17.80
2023-05-22T17:33:12.079Z,17.70
2023-05-22T17:35:39.006Z,17.60
2023-05-22T17:38:08.376Z,17.60
2023-05-22T17:40:44.857Z,17.60
2023-05-22T17:43:13.845Z,17.60
2023-05-22T17:45:41.714Z,17.60
2023-05-22T17:48:08.818Z,17.70
2023-05-22T17:50:35.655Z,18.30
2023-05-22T17:53:02.908Z,17.80
2023-05-22T17:55:29.780Z,17.80
2023-05-22T17:57:56.789Z,17.80
2023-05-22T18:00:23.850Z,17.80
2023-05-22T18:02:50.954Z,17.90
2023-05-22T18:05:17.962Z,18.00
2023-05-22T18:07:44.871Z,18.10
2023-05-22T18:10:11.842Z,18.20
2023-05-22T18:12:38.804Z,18.30
2023-05-22T18:15:09.451Z,18.30
2023-05-22T18:17:36.405Z,18.40
2023-05-22T18:20:06.260Z,18.40
2023-05-22T18:22:33.113Z,18.50
2023-05-22T18:24:59.926Z,18.60
2023-05-22T18:27:27.706Z,18.60
2023-05-22T18:29:55.458Z,18.60
2023-05-22T18:32:22.815Z,18.70
2023-05-22T18:34:49.811Z,18.70
2023-05-22T18:37:16.704Z,18.80
2023-05-22T18:39:43.969Z,18.90
2023-05-22T18:42:10.958Z,18.90
2023-05-22T18:44:37.934Z,18.90
2023-05-22T18:47:05.553Z,19.00
2023-05-22T18:49:32.883Z,19.00
2023-05-22T18:51:59.939Z,19.20
2023-05-22T18:54:27.488Z,19.00
2023-05-22T18:56:54.313Z,18.90
2023-05-22T18:59:21.245Z,18.90
2023-05-22T19:01:48.099Z,18.90
2023-05-22T19:04:15.070Z,18.80
2023-05-22T19:06:42.082Z,18.80
2023-05-22T19:09:12.097Z,18.70
2023-05-22T19:11:39.239Z,18.70
2023-05-22T19:14:06.085Z,18.70
2023-05-22T19:16:32.924Z,18.60
2023-05-22T19:18:59.899Z,18.50
2023-05-22T19:21:26.826Z,18.50
2023-05-22T19:23:53.664Z,18.50
2023-05-22T19:26:21.035Z,18.50
2023-05-22T19:28:47.872Z,18.50
2023-05-22T19:31:14.731Z,18.50
2023-05-22T19:33:41.573Z,18.50
2023-05-22T19:36:08.448Z,18.40
2023-05-22T19:38:35.387Z,18.40
2023-05-22T19:41:02.970Z,18.40
2023-05-22T19:43:31.348Z,18.40
2023-05-22T19:45:58.489Z,18.40
2023-05-22T19:48:25.723Z,18.40
2023-05-22T19:50:52.950Z,18.40
2023-05-22T19:53:19.764Z,18.30
2023-05-22T19:55:47.513Z,18.30
2023-05-22T19:58:14.415Z,18.30
2023-05-22T20:00:41.699Z,18.20
2023-05-22T20:03:09.358Z,18.10
2023-05-22T20:05:36.366Z,18.40
2023-05-22T20:08:03.314Z,18.00
2023-05-22T20:10:31.249Z,18.30
2023-05-22T20:12:59.328Z,17.90
2023-05-22T20:15:26.183Z,17.90
2023-05-22T20:17:54.410Z,17.90
2023-05-22T20:20:24.074Z,17.90
2023-05-22T20:22:52.708Z,17.90
2023-05-22T20:25:21.228Z,17.90
2023-05-22T20:27:48.108Z,17.80
2023-05-22T20:30:15.290Z,17.80
2023-05-22T20:32:46.640Z,17.70
2023-05-22T20:35:14.002Z,17.70
2023-05-22T20:37:41.607Z,17.60
2023-05-22T20:40:09.501Z,17.50
2023-05-22T20:42:37.803Z,17.50
2023-05-22T20:45:06.211Z,17.50
2023-05-22T20:47:36.134Z,17.40
2023-05-22T20:50:03.261Z,17.30
2023-05-22T20:52:30.454Z,17.40
2023-05-22T20:54:57.954Z,17.40
2023-05-22T20:57:25.657Z,17.40
2023-05-22T20:59:54.082Z,17.40
2023-05-22T21:02:21.156Z,17.40
2023-05-22T21:04:47.997Z,17.40
2023-05-22T21:07:14.825Z,17.40
2023-05-22T21:09:42.181Z,17.40
2023-05-22T21:12:09.248Z,17.40
2023-05-22T21:14:36.285Z,17.30
2023-05-22T21:17:03.769Z,17.30
2023-05-22T21:19:30.760Z,17.20
2023-05-22T21:21:57.771Z,17.10
2023-05-22T21:24:24.863Z,17.00
2023-05-22T21:26:51.704Z,17.00
2023-05-22T21:29:18.571Z,16.90
2023-05-22T21:31:45.728Z,16.80
2023-05-22T21:34:12.814Z,16.80
2023-05-22T21:36:39.640Z,16.80
2023-05-22T21:39:06.506Z,16.70
2023-05-22T21:41:33.479Z,16.70
2023-05-22T21:44:00.626Z,16.60
2023-05-22T21:46:27.880Z,16.60
2023-05-22T21:48:54.792Z,16.60
2023-05-22T21:51:21.688Z,16.50
2023-05-22T21:53:48.521Z,16.50
2023-05-22T21:56:15.376Z,16.50
2023-05-22T21:58:42.243Z,16.50
2023-05-22T22:01:10.069Z,16.50
2023-05-22T22:03:38.859Z,16.50
2023-05-22T22:06:06.290Z,16.50
2023-05-22T22:08:33.202Z,16.50
2023-05-22T22:11:00.121Z,16.50
2023-05-22T22:13:26.938Z,16.40
2023-05-22T22:15:53.765Z,16.50
2023-05-22T22:18:20.734Z,16.40
2023-05-22T22:20:50.176Z,16.40
2023-05-22T22:23:17.165Z,16.40
2023-05-22T22:25:44.007Z,16.40
2023-05-22T22:28:11.364Z,16.40
2023-05-22T22:30:38.401Z,16.30
2023-05-22T22:33:05.435Z,16.30
2023-05-22T22:35:32.272Z,16.30
2023-05-22T22:37:59.135Z,16.30
2023-05-22T22:40:26.938Z,16.30
2023-05-22T22:42:54.001Z,16.30
2023-05-22T22:45:21.084Z,16.30
2023-05-22T22:47:48.239Z,16.20
2023-05-22T22:50:15.197Z,16.30
2023-05-22T22:52:45.524Z,16.30
2023-05-22T22:55:13.500Z,16.30
2023-05-22T22:57:46.984Z,16.40
2023-05-22T23:00:14.440Z,16.40
2023-05-22T23:02:41.343Z,16.50
2023-05-22T23:05:08.946Z,16.50
2023-05-22T23:07:36.156Z,16.50
2023-05-22T23:10:03.611Z,16.50
2023-05-22T23:12:35.046Z,16.50
2023-05-22T23:15:02.945Z,15.90
2023-05-22T23:17:30.172Z,16.50
2023-05-22T23:19:57.321Z,16.50
2023-05-22T23:22:24.377Z,16.50
2023-05-22T23:24:51.273Z,16.50
2023-05-22T23:27:18.188Z,16.50
2023-05-22T23:29:45.060Z,16.50
2023-05-22T23:32:14.592Z,16.50
2023-05-22T23:34:42.287Z,16.50
2023-05-22T23:37:09.900Z,16.50
2023-05-22T23:39:36.740Z,16.50
2023-05-22T23:42:03.909Z,16.50
2023-05-22T23:44:31.474Z,16.60
2023-05-22T23:46:59.413Z,16.60
2023-05-22T23:49:26.791Z,16.60
2023-05-22T23:51:53.817Z,16.60
2023-05-22T23:54:20.775Z,16.60
2023-05-22T23:56:47.745Z,16.60
2023-05-22T23:59:15.636Z,16.60
